createdAt,value
2017-12-14T00:01:09.906Z,1.87
2017-12-14T00:03:38.059Z,1.77
2017-12-14T00:06:06.256Z,1.87
2017-12-14T00:08:34.414Z,2.40
2017-12-14T00:11:02.584Z,2.13
2017-12-14T00:13:30.758Z,1.97
2017-12-14T00:15:59.108Z,1.60
2017-12-14T00:18:27.394Z,1.70
2017-12-14T00:20:55.574Z,1.67
2017-12-14T00:23:23.739Z,1.40
2017-12-14T00:25:52.081Z,2.07
2017-12-14T00:28:20.234Z,1.77
2017-12-14T00:30:48.442Z,2.07
2017-12-14T00:33:17.410Z,1.60
2017-12-14T00:35:45.603Z,1.53
2017-12-14T00:38:14.545Z,2.17
2017-12-14T00:40:42.732Z,1.83
2017-12-14T00:43:10.892Z,1.27
2017-12-14T00:45:39.058Z,1.90
2017-12-14T00:48:07.228Z,1.30
2017-12-14T00:50:35.389Z,1.53
2017-12-14T00:53:03.559Z,1.30
2017-12-14T00:55:31.712Z,1.90
2017-12-14T00:58:00.627Z,1.60
2017-12-14T01:00:28.804Z,1.97
2017-12-14T01:02:56.950Z,1.43
2017-12-14T01:05:25.886Z,1.50
2017-12-14T01:07:54.034Z,1.63
2017-12-14T01:10:22.287Z,2.00
2017-12-14T01:12:50.429Z,1.30
2017-12-14T01:15:18.611Z,1.90
2017-12-14T01:17:46.792Z,1.57
2017-12-14T01:20:14.940Z,1.53
2017-12-14T01:22:42.873Z,1.90
2017-12-14T01:25:11.794Z,2.37
2017-12-14T01:27:39.940Z,1.23
2017-12-14T01:30:08.138Z,1.90
2017-12-14T01:32:36.305Z,1.57
2017-12-14T01:35:04.481Z,2.10
2017-12-14T01:37:32.651Z,2.20
2017-12-14T01:40:00.806Z,1.37
2017-12-14T01:42:29.943Z,1.77
2017-12-14T01:44:58.298Z,1.70
2017-12-14T01:47:26.586Z,1.70
2017-12-14T01:49:54.754Z,1.60
2017-12-14T01:52:22.920Z,1.80
2017-12-14T01:54:51.083Z,1.73
2017-12-14T01:57:20.019Z,1.50
2017-12-14T01:59:48.188Z,1.50
2017-12-14T02:02:16.334Z,1.67
2017-12-14T02:04:44.525Z,1.60
2017-12-14T02:07:12.681Z,1.40
2017-12-14T02:09:40.849Z,1.57
2017-12-14T02:12:09.788Z,1.87
2017-12-14T02:14:38.242Z,1.37
2017-12-14T02:17:06.536Z,1.57
2017-12-14T02:19:34.678Z,1.40
2017-12-14T02:22:02.854Z,2.20
2017-12-14T02:24:31.042Z,1.70
2017-12-14T02:26:59.221Z,1.40
2017-12-14T02:29:27.428Z,1.53
2017-12-14T02:31:55.587Z,1.80
2017-12-14T02:34:23.752Z,1.50
2017-12-14T02:36:51.914Z,1.43
2017-12-14T02:39:20.144Z,1.70
2017-12-14T02:41:49.115Z,0.87
2017-12-14T02:44:17.299Z,1.33
2017-12-14T02:46:45.782Z,1.40
2017-12-14T02:49:14.842Z,1.13
2017-12-14T02:51:43.142Z,1.03
2017-12-14T02:54:11.449Z,1.53
2017-12-14T02:56:40.421Z,1.37
2017-12-14T02:59:08.587Z,1.20
2017-12-14T03:01:36.762Z,1.50
2017-12-14T03:04:04.923Z,1.37
2017-12-14T03:06:33.106Z,1.10
2017-12-14T03:09:01.259Z,1.63
2017-12-14T03:11:29.431Z,1.63
2017-12-14T03:13:57.624Z,1.67
2017-12-14T03:16:25.806Z,0.97
2017-12-14T03:18:54.198Z,1.30
2017-12-14T03:21:22.370Z,1.27
2017-12-14T03:23:50.540Z,1.23
2017-12-14T03:26:18.696Z,1.17
2017-12-14T03:28:46.863Z,0.80
2017-12-14T03:31:15.064Z,0.83
2017-12-14T03:33:43.225Z,1.20
2017-12-14T03:36:11.548Z,0.70
2017-12-14T03:38:40.480Z,1.23
2017-12-14T03:41:08.676Z,1.40
2017-12-14T03:43:36.846Z,1.10
2017-12-14T03:46:05.001Z,1.27
2017-12-14T03:48:33.173Z,1.03
2017-12-14T03:51:01.338Z,1.10
2017-12-14T03:53:29.638Z,1.20
2017-12-14T03:55:57.856Z,1.20
2017-12-14T03:58:26.919Z,0.90
2017-12-14T04:00:55.102Z,1.40
2017-12-14T04:03:23.268Z,0.90
2017-12-14T04:05:51.489Z,0.90
2017-12-14T04:08:20.420Z,1.40
2017-12-14T04:10:48.583Z,1.03
2017-12-14T04:13:16.764Z,1.20
2017-12-14T04:15:44.927Z,1.00
2017-12-14T04:18:13.086Z,1.13
2017-12-14T04:20:41.246Z,1.43
2017-12-14T04:23:10.186Z,0.80
2017-12-14T04:25:38.376Z,0.93
2017-12-14T04:28:06.526Z,0.80
2017-12-14T04:30:34.720Z,1.40
2017-12-14T04:33:02.896Z,0.77
2017-12-14T04:35:31.046Z,0.90
2017-12-14T04:37:59.257Z,1.00
2017-12-14T04:40:27.567Z,0.90
2017-12-14T04:42:56.508Z,0.63
2017-12-14T04:45:24.712Z,1.13
2017-12-14T04:47:52.892Z,0.83
2017-12-14T04:50:21.830Z,0.67
2017-12-14T04:52:50.012Z,0.53
2017-12-14T04:55:18.295Z,0.80
2017-12-14T04:57:46.875Z,1.03
2017-12-14T05:00:15.113Z,1.00
2017-12-14T05:02:43.286Z,1.27
2017-12-14T05:05:12.215Z,1.50
2017-12-14T05:07:40.412Z,1.23
2017-12-14T05:10:08.570Z,1.00
2017-12-14T05:12:36.787Z,1.50
2017-12-14T05:15:05.146Z,1.00
2017-12-14T05:17:33.331Z,0.97
2017-12-14T05:20:01.494Z,2.27
2017-12-14T05:22:29.642Z,1.73
2017-12-14T05:24:57.848Z,1.00
2017-12-14T05:27:26.194Z,1.20
2017-12-14T05:29:55.219Z,1.40
2017-12-14T05:32:23.570Z,1.20
2017-12-14T05:34:53.318Z,1.40
2017-12-14T05:37:22.467Z,1.90
2017-12-14T05:39:50.617Z,1.50
2017-12-14T05:42:18.795Z,1.83
2017-12-14T05:44:46.952Z,1.20
2017-12-14T05:47:15.903Z,1.47
2017-12-14T05:49:44.054Z,1.07
2017-12-14T05:52:12.263Z,1.37
2017-12-14T05:54:40.642Z,5.53
2017-12-14T05:57:08.877Z,4.23
2017-12-14T05:59:37.102Z,6.10
2017-12-14T06:02:05.660Z,3.20
2017-12-14T06:04:33.834Z,4.63
2017-12-14T06:07:02.011Z,71.47
2017-12-14T06:09:30.175Z,65.10
2017-12-14T06:11:58.341Z,43.63
2017-12-14T06:14:26.548Z,27.70
2017-12-14T06:16:54.711Z,20.83
2017-12-14T06:19:22.866Z,17.10
2017-12-14T06:21:50.967Z,15.83
2017-12-14T06:24:19.168Z,14.97
2017-12-14T06:26:48.126Z,13.30
2017-12-14T06:29:16.292Z,13.87
2017-12-14T06:31:44.454Z,12.93
2017-12-14T06:34:12.765Z,12.97
2017-12-14T06:36:41.278Z,12.07
2017-12-14T06:39:10.337Z,12.60
2017-12-14T06:41:39.439Z,11.27
2017-12-14T06:44:07.643Z,12.23
2017-12-14T06:46:36.627Z,11.20
2017-12-14T06:49:05.585Z,9.50
2017-12-14T06:51:33.758Z,10.43
2017-12-14T06:54:01.913Z,9.13
2017-12-14T06:56:30.107Z,9.33
2017-12-14T06:58:58.391Z,8.53
2017-12-14T07:01:27.351Z,7.83
2017-12-14T07:03:55.554Z,7.20
2017-12-14T07:06:23.870Z,7.47
2017-12-14T07:08:52.803Z,7.50
2017-12-14T07:11:21.226Z,6.93
2017-12-14T07:13:49.390Z,7.07
2017-12-14T07:16:17.566Z,5.80
2017-12-14T07:18:45.929Z,6.23
2017-12-14T07:21:14.256Z,5.80
2017-12-14T07:23:43.214Z,5.97
2017-12-14T07:26:11.389Z,5.60
2017-12-14T07:28:40.088Z,4.80
2017-12-14T07:31:08.229Z,5.50
2017-12-14T07:33:36.388Z,4.80
2017-12-14T07:36:04.606Z,5.53
2017-12-14T07:38:32.810Z,5.13
2017-12-14T07:41:00.976Z,4.13
2017-12-14T07:43:29.909Z,4.20
2017-12-14T07:46:09.506Z,4.77
2017-12-14T07:48:38.326Z,4.90
2017-12-14T07:51:06.758Z,3.90
2017-12-14T07:53:34.917Z,4.03
2017-12-14T07:56:03.091Z,4.00
2017-12-14T07:58:31.251Z,3.53
2017-12-14T08:00:59.475Z,3.90
2017-12-14T08:03:28.456Z,3.83
2017-12-14T08:05:56.619Z,3.77
2017-12-14T08:08:24.773Z,4.13
2017-12-14T08:10:52.978Z,2.90
2017-12-14T08:13:21.140Z,3.20
2017-12-14T08:15:49.310Z,3.10
2017-12-14T08:18:17.515Z,2.57
2017-12-14T08:20:46.543Z,3.77
2017-12-14T08:23:14.707Z,2.83
2017-12-14T08:25:42.914Z,2.50
2017-12-14T08:28:11.065Z,2.53
2017-12-14T08:30:39.388Z,3.03
2017-12-14T08:33:07.874Z,3.30
2017-12-14T08:35:36.027Z,3.00
2017-12-14T08:38:04.173Z,3.20
2017-12-14T08:40:32.699Z,2.53
2017-12-14T08:43:00.961Z,2.40
2017-12-14T08:45:29.129Z,3.17
2017-12-14T08:47:57.517Z,2.43
2017-12-14T08:50:25.464Z,2.13
2017-12-14T08:52:53.874Z,2.50
2017-12-14T08:55:22.061Z,2.43
2017-12-14T08:57:50.209Z,2.33
2017-12-14T09:00:18.490Z,2.50
2017-12-14T09:02:46.685Z,1.90
2017-12-14T09:05:15.615Z,3.17
2017-12-14T09:07:43.973Z,2.90
2017-12-14T09:10:13.020Z,2.80
2017-12-14T09:12:41.538Z,2.23
2017-12-14T09:15:10.738Z,2.63
2017-12-14T09:17:40.025Z,2.33
2017-12-14T09:20:08.319Z,2.27
2017-12-14T09:22:37.254Z,2.23
2017-12-14T09:25:05.422Z,2.20
2017-12-14T09:27:33.595Z,1.80
2017-12-14T09:30:01.761Z,1.80
2017-12-14T09:32:29.980Z,1.60
2017-12-14T09:34:58.345Z,2.70
2017-12-14T09:37:26.514Z,1.73
2017-12-14T09:39:54.722Z,1.83
2017-12-14T09:42:22.869Z,1.87
2017-12-14T09:44:51.129Z,2.33
2017-12-14T09:47:19.314Z,1.70
2017-12-14T09:49:47.474Z,2.33
2017-12-14T09:52:15.685Z,2.07
2017-12-14T09:54:43.858Z,1.30
2017-12-14T09:57:12.031Z,2.90
2017-12-14T09:59:40.245Z,2.07
2017-12-14T10:02:09.196Z,1.90
2017-12-14T10:04:37.341Z,2.33
2017-12-14T10:07:05.690Z,1.80
2017-12-14T10:09:33.844Z,2.30
2017-12-14T10:12:02.025Z,1.70
2017-12-14T10:14:30.470Z,1.70
2017-12-14T10:16:58.822Z,2.07
2017-12-14T10:19:27.041Z,1.83
2017-12-14T10:21:55.721Z,1.63
2017-12-14T10:24:24.167Z,1.80
2017-12-14T10:26:52.698Z,1.50
2017-12-14T10:29:20.943Z,1.47
2017-12-14T10:31:49.124Z,1.87
2017-12-14T10:34:17.321Z,1.40
2017-12-14T10:36:46.697Z,1.40
2017-12-14T10:39:14.967Z,1.50
2017-12-14T10:41:43.397Z,1.30
2017-12-14T10:44:12.330Z,1.80
2017-12-14T10:46:40.470Z,1.40
2017-12-14T10:49:09.871Z,1.33
2017-12-14T10:51:38.202Z,1.27
2017-12-14T10:54:06.559Z,1.50
2017-12-14T10:56:34.984Z,1.30
2017-12-14T10:59:04.009Z,1.33
2017-12-14T11:01:32.208Z,1.00
2017-12-14T11:04:00.389Z,1.20
2017-12-14T11:06:29.193Z,1.77
2017-12-14T11:08:57.168Z,1.77
2017-12-14T11:11:25.368Z,0.83
2017-12-14T11:13:53.846Z,1.30
2017-12-14T11:16:21.994Z,1.30
2017-12-14T11:18:50.695Z,1.20
2017-12-14T11:21:19.064Z,1.37
2017-12-14T11:23:47.254Z,1.33
2017-12-14T11:26:15.434Z,1.30
2017-12-14T11:28:43.591Z,1.50
2017-12-14T11:31:11.784Z,1.43
2017-12-14T11:33:39.933Z,1.37
2017-12-14T11:36:08.310Z,1.13
2017-12-14T11:38:36.492Z,1.10
2017-12-14T11:41:04.653Z,1.40
2017-12-14T11:43:32.815Z,1.10
2017-12-14T11:46:00.994Z,1.23
2017-12-14T11:48:29.402Z,1.47
2017-12-14T11:50:57.590Z,1.80
2017-12-14T11:53:26.693Z,1.37
2017-12-14T11:55:55.676Z,1.50
2017-12-14T11:58:23.824Z,0.83
2017-12-14T12:00:52.158Z,1.43
2017-12-14T12:03:20.310Z,1.00
2017-12-14T12:05:49.240Z,0.77
2017-12-14T12:08:17.517Z,1.20
2017-12-14T12:10:45.680Z,0.90
2017-12-14T12:13:13.852Z,1.30
2017-12-14T12:15:42.005Z,1.20
2017-12-14T12:18:11.177Z,0.77
2017-12-14T12:20:39.424Z,0.93
2017-12-14T12:23:07.766Z,1.10
2017-12-14T12:25:35.923Z,0.90
2017-12-14T12:28:04.108Z,1.00
2017-12-14T12:30:33.072Z,1.07
2017-12-14T12:33:01.223Z,1.13
2017-12-14T12:35:30.256Z,0.90
2017-12-14T12:37:58.216Z,1.10
2017-12-14T12:40:26.531Z,1.30
2017-12-14T12:42:54.714Z,0.70
2017-12-14T12:45:22.858Z,1.27
2017-12-14T12:47:52.196Z,0.90
2017-12-14T12:50:20.473Z,1.10
2017-12-14T12:52:48.927Z,0.77
2017-12-14T12:55:17.128Z,0.90
2017-12-14T12:57:45.278Z,0.77
2017-12-14T13:00:14.369Z,1.20
2017-12-14T13:02:43.654Z,0.67
2017-12-14T13:05:12.624Z,1.03
2017-12-14T13:07:40.774Z,0.77
2017-12-14T13:10:08.963Z,1.00
2017-12-14T13:12:37.174Z,0.80
2017-12-14T13:15:06.100Z,0.90
2017-12-14T13:17:34.312Z,0.90
2017-12-14T13:20:02.472Z,1.10
2017-12-14T13:22:31.611Z,1.23
2017-12-14T13:25:00.614Z,1.50
2017-12-14T13:27:29.564Z,0.73
2017-12-14T13:29:57.965Z,0.97
2017-12-14T13:32:26.144Z,1.10
2017-12-14T13:34:55.827Z,1.17
2017-12-14T13:37:24.003Z,0.90
2017-12-14T13:39:52.383Z,1.07
2017-12-14T13:42:20.652Z,0.90
2017-12-14T13:44:48.836Z,1.40
2017-12-14T13:47:17.946Z,0.90
2017-12-14T13:49:46.123Z,0.87
2017-12-14T13:52:14.295Z,1.00
2017-12-14T13:54:42.470Z,0.77
2017-12-14T13:57:10.626Z,0.80
2017-12-14T13:59:38.905Z,1.03
2017-12-14T14:02:07.080Z,1.10
2017-12-14T14:04:35.243Z,0.73
2017-12-14T14:07:04.384Z,0.80
2017-12-14T14:09:33.183Z,1.00
2017-12-14T14:12:02.209Z,0.70
2017-12-14T14:14:30.447Z,0.80
2017-12-14T14:16:59.421Z,0.60
2017-12-14T14:19:27.579Z,0.80
2017-12-14T14:21:55.795Z,1.37
2017-12-14T14:24:24.816Z,1.20
2017-12-14T14:26:53.101Z,1.50
2017-12-14T14:29:21.434Z,1.27
2017-12-14T14:31:50.382Z,1.40
2017-12-14T14:34:18.596Z,1.33
2017-12-14T14:36:47.537Z,1.50
2017-12-14T14:39:15.797Z,1.50
2017-12-14T14:41:44.324Z,1.40
2017-12-14T14:44:12.539Z,1.60
2017-12-14T14:46:40.718Z,1.30
2017-12-14T14:49:08.880Z,1.40
2017-12-14T14:51:37.828Z,1.50
2017-12-14T14:54:06.051Z,1.43
2017-12-14T14:56:34.983Z,1.50
2017-12-14T14:59:03.197Z,1.70
2017-12-14T15:01:31.380Z,1.60
2017-12-14T15:03:59.548Z,1.73
2017-12-14T15:06:27.740Z,1.50
2017-12-14T15:08:56.832Z,1.77
2017-12-14T15:11:25.776Z,1.50
2017-12-14T15:13:53.995Z,1.30
2017-12-14T15:16:22.956Z,1.70
2017-12-14T15:18:51.114Z,1.73
2017-12-14T15:21:19.367Z,1.43
2017-12-14T15:23:47.530Z,1.43
2017-12-14T15:26:16.038Z,1.70
2017-12-14T15:28:44.287Z,1.70
2017-12-14T15:31:12.501Z,1.47
2017-12-14T15:33:40.659Z,1.60
2017-12-14T15:36:09.405Z,1.30
2017-12-14T15:38:38.394Z,1.80
2017-12-14T15:41:06.662Z,1.53
2017-12-14T15:43:34.872Z,1.10
2017-12-14T15:46:03.045Z,1.87
2017-12-14T15:48:31.977Z,1.57
2017-12-14T15:51:00.221Z,1.27
2017-12-14T15:53:28.386Z,1.80
2017-12-14T15:55:56.578Z,1.90
2017-12-14T15:58:24.804Z,1.43
2017-12-14T16:00:53.382Z,1.70
2017-12-14T16:03:21.569Z,1.67
2017-12-14T16:05:50.529Z,1.60
2017-12-14T16:08:18.889Z,1.80
2017-12-14T16:10:47.115Z,1.60
2017-12-14T16:13:15.959Z,1.50
2017-12-14T16:15:45.280Z,1.93
2017-12-14T16:18:13.736Z,1.50
2017-12-14T16:20:42.057Z,1.87
2017-12-14T16:23:10.254Z,1.80
2017-12-14T16:25:39.187Z,1.47
2017-12-14T16:28:07.358Z,1.60
2017-12-14T16:30:35.535Z,1.90
2017-12-14T16:33:03.706Z,1.80
2017-12-14T16:35:31.915Z,1.77
2017-12-14T16:38:00.085Z,1.67
2017-12-14T16:40:28.842Z,1.30
2017-12-14T16:42:57.043Z,2.23
2017-12-14T16:45:25.206Z,1.70
2017-12-14T16:47:53.375Z,1.80
2017-12-14T16:50:21.894Z,1.47
2017-12-14T16:52:50.072Z,1.83
2017-12-14T16:55:18.232Z,1.70
2017-12-14T16:57:46.402Z,1.80
2017-12-14T17:00:14.579Z,1.27
2017-12-14T17:02:42.722Z,1.33
2017-12-14T17:05:10.924Z,1.60
2017-12-14T17:07:39.172Z,1.27
2017-12-14T17:10:07.354Z,1.70
2017-12-14T17:12:35.899Z,1.60
2017-12-14T17:15:04.094Z,1.60
2017-12-14T17:17:32.243Z,2.40
2017-12-14T17:20:00.993Z,1.50
2017-12-14T17:22:29.296Z,1.77
2017-12-14T17:24:58.272Z,1.20
2017-12-14T17:27:26.431Z,1.50
2017-12-14T17:29:54.634Z,1.90
2017-12-14T17:32:23.068Z,1.50
2017-12-14T17:34:52.190Z,1.40
2017-12-14T17:37:20.363Z,1.87
2017-12-14T17:39:48.584Z,1.50
2017-12-14T17:42:17.650Z,1.57
2017-12-14T17:44:46.608Z,1.47
2017-12-14T17:47:14.972Z,1.47
2017-12-14T17:49:43.172Z,1.60
2017-12-14T17:52:11.329Z,1.30
2017-12-14T17:54:39.515Z,1.20
2017-12-14T17:57:07.804Z,1.50
2017-12-14T17:59:36.009Z,1.83
2017-12-14T18:02:04.939Z,1.43
2017-12-14T18:04:35.596Z,1.53
2017-12-14T18:07:03.774Z,1.40
2017-12-14T18:09:31.945Z,2.00
2017-12-14T18:12:00.178Z,1.23
2017-12-14T18:14:28.512Z,1.83
2017-12-14T18:16:56.714Z,1.50
2017-12-14T18:19:25.668Z,1.80
2017-12-14T18:21:53.835Z,1.50
2017-12-14T18:24:22.030Z,1.43
2017-12-14T18:26:50.193Z,1.57
2017-12-14T18:29:18.520Z,1.47
2017-12-14T18:31:47.625Z,1.60
2017-12-14T18:34:16.325Z,1.60
2017-12-14T18:36:44.656Z,1.40
2017-12-14T18:39:12.860Z,1.83
2017-12-14T18:41:41.091Z,1.37
2017-12-14T18:44:09.848Z,1.70
2017-12-14T18:46:38.029Z,1.23
2017-12-14T18:49:06.212Z,1.50
2017-12-14T18:51:34.402Z,1.60
2017-12-14T18:54:02.550Z,1.60
2017-12-14T18:56:30.712Z,1.53
2017-12-14T18:58:58.900Z,1.43
2017-12-14T19:01:27.072Z,1.30
2017-12-14T19:03:56.182Z,1.30
2017-12-14T19:06:24.376Z,1.43
2017-12-14T19:08:52.584Z,1.40
2017-12-14T19:11:21.510Z,1.77
2017-12-14T19:13:49.889Z,1.57
2017-12-14T19:16:18.164Z,1.30
2017-12-14T19:18:46.381Z,1.30
2017-12-14T19:21:14.568Z,1.80
2017-12-14T19:23:43.510Z,1.70
2017-12-14T19:26:11.675Z,1.50
2017-12-14T19:28:39.864Z,1.83
2017-12-14T19:31:08.089Z,2.10
2017-12-14T19:33:37.047Z,1.33
2017-12-14T19:36:05.218Z,1.60
2017-12-14T19:38:33.462Z,2.37
2017-12-14T19:41:01.651Z,1.70
2017-12-14T19:43:29.919Z,1.40
2017-12-14T19:45:58.095Z,1.40
2017-12-14T19:48:26.471Z,1.40
2017-12-14T19:50:55.811Z,1.30
2017-12-14T19:53:24.295Z,1.30
2017-12-14T19:55:52.997Z,1.37
2017-12-14T19:58:21.152Z,2.17
2017-12-14T20:00:49.527Z,1.50
2017-12-14T20:03:17.858Z,1.67
2017-12-14T20:05:46.055Z,1.43
2017-12-14T20:08:14.225Z,1.30
2017-12-14T20:10:42.592Z,1.50
2017-12-14T20:13:10.752Z,1.50
2017-12-14T20:15:38.986Z,1.40
2017-12-14T20:18:07.724Z,1.53
2017-12-14T20:20:36.008Z,1.40
2017-12-14T20:23:04.225Z,1.63
2017-12-14T20:25:32.518Z,1.40
2017-12-14T20:28:00.868Z,1.50
2017-12-14T20:30:28.935Z,1.43
2017-12-14T20:32:57.137Z,1.20
2017-12-14T20:35:25.319Z,1.50
2017-12-14T20:37:53.544Z,1.63
2017-12-14T20:40:21.971Z,1.27
2017-12-14T20:42:50.156Z,1.57
2017-12-14T20:45:18.370Z,1.40
2017-12-14T20:47:46.532Z,1.50
2017-12-14T20:50:15.020Z,1.70
2017-12-14T20:52:43.198Z,1.33
2017-12-14T20:55:11.408Z,1.40
2017-12-14T20:57:39.592Z,1.70
2017-12-14T21:00:07.856Z,1.40
2017-12-14T21:02:36.062Z,1.63
2017-12-14T21:05:05.196Z,1.40
2017-12-14T21:07:33.383Z,1.43
2017-12-14T21:10:01.546Z,1.30
2017-12-14T21:12:29.808Z,2.43
2017-12-14T21:14:58.000Z,1.43
2017-12-14T21:17:26.307Z,1.93
2017-12-14T21:19:54.479Z,1.83
2017-12-14T21:22:22.717Z,1.30
2017-12-14T21:24:50.879Z,1.27
2017-12-14T21:27:19.132Z,1.47
2017-12-14T21:29:47.301Z,1.80
2017-12-14T21:32:15.566Z,1.47
2017-12-14T21:34:43.730Z,1.70
2017-12-14T21:37:11.911Z,1.20
2017-12-14T21:39:40.074Z,1.43
2017-12-14T21:42:08.380Z,5.67
2017-12-14T21:44:37.319Z,8.90
2017-12-14T21:47:05.551Z,5.03
2017-12-14T21:49:34.492Z,3.50
2017-12-14T21:52:02.665Z,2.50
2017-12-14T21:54:30.834Z,2.20
2017-12-14T21:56:59.126Z,2.67
2017-12-14T21:59:26.956Z,3.30
2017-12-14T22:01:55.127Z,3.67
2017-12-14T22:04:23.633Z,3.43
2017-12-14T22:06:51.932Z,2.60
2017-12-14T22:09:20.095Z,2.00
2017-12-14T22:11:48.392Z,1.80
2017-12-14T22:14:17.797Z,1.97
2017-12-14T22:16:46.800Z,3.07
2017-12-14T22:19:16.887Z,2.70
2017-12-14T22:21:46.668Z,4.97
2017-12-14T22:24:17.986Z,3.13
2017-12-14T22:26:48.007Z,3.20
2017-12-14T22:29:17.608Z,2.57
2017-12-14T22:31:46.674Z,2.87
2017-12-14T22:34:15.932Z,2.70
2017-12-14T22:36:45.413Z,2.53
2017-12-14T22:39:14.529Z,2.00
2017-12-14T22:41:44.273Z,1.67
2017-12-14T22:44:14.084Z,1.80
2017-12-14T22:46:43.035Z,1.87
2017-12-14T22:49:12.844Z,1.77
2017-12-14T22:51:42.668Z,1.87
2017-12-14T22:54:12.422Z,1.70
2017-12-14T22:56:45.616Z,2.57
2017-12-14T22:59:20.255Z,1.63
2017-12-14T23:01:52.354Z,1.70
2017-12-14T23:04:24.895Z,1.57
2017-12-14T23:06:57.304Z,1.83
2017-12-14T23:09:25.769Z,1.90
2017-12-14T23:11:53.960Z,2.07
2017-12-14T23:14:23.641Z,1.40
2017-12-14T23:16:51.588Z,2.27
2017-12-14T23:19:20.699Z,1.83
2017-12-14T23:21:48.900Z,2.47
2017-12-14T23:24:17.262Z,2.73
2017-12-14T23:26:45.432Z,1.67
2017-12-14T23:29:13.594Z,1.80
2017-12-14T23:31:41.805Z,2.53
2017-12-14T23:34:10.207Z,2.17
2017-12-14T23:36:39.158Z,1.73
2017-12-14T23:39:07.519Z,2.00
2017-12-14T23:41:35.842Z,1.93
2017-12-14T23:44:03.760Z,1.73
2017-12-14T23:46:31.919Z,1.57
2017-12-14T23:49:00.113Z,1.70
2017-12-14T23:51:28.290Z,2.07
2017-12-14T23:53:56.456Z,1.53
2017-12-14T23:56:24.606Z,1.60
2017-12-14T23:58:53.544Z,2.20
